sensor_id;sensor_type;location;lat;lon;timestamp;P1;durP1;ratioP1;P2;durP2;ratioP2
83513;SDS011;73447;53.262;10.424;2024-01-25T08:57:39;27.38;;;5.20;;
83513;SDS011;73447;53.262;10.424;2024-01-25T09:00:06;24.08;;;4.95;;
83513;SDS011;73447;53.262;10.424;2024-01-25T09:02:38;26.97;;;5.23;;
83513;SDS011;73447;53.262;10.424;2024-01-25T09:05:04;21.05;;;5.45;;
83513;SDS011;73447;53.262;10.424;2024-01-25T09:07:30;30.23;;;5.82;;
83513;SDS011;73447;53.262;10.424;2024-01-25T09:09:56;21.13;;;6.28;;
83513;SDS011;73447;53.262;10.424;2024-01-25T09:12:21;19.85;;;4.57;;
83513;SDS011;73447;53.262;10.424;2024-01-25T09:14:46;36.03;;;6.70;;
83513;SDS011;73447;53.262;10.424;2024-01-25T09:17:12;19.27;;;4.00;;
83513;SDS011;73447;53.262;10.424;2024-01-25T09:19:38;20.70;;;4.60;;
83513;SDS011;73447;53.262;10.424;2024-01-25T09:22:04;18.52;;;4.88;;
83513;SDS011;73447;53.262;10.424;2024-01-25T09:24:32;17.45;;;5.63;;
83513;SDS011;73447;53.262;10.424;2024-01-25T09:27:01;24.08;;;5.32;;
83513;SDS011;73447;53.262;10.424;2024-01-25T09:29:29;18.60;;;4.90;;
83513;SDS011;73447;53.262;10.424;2024-01-25T09:31:54;20.38;;;5.15;;
83513;SDS011;73447;53.262;10.424;2024-01-25T09:34:20;15.68;;;4.68;;
83513;SDS011;73447;53.262;10.424;2024-01-25T09:36:46;18.30;;;4.63;;
83513;SDS011;73447;53.262;10.424;2024-01-25T09:39:11;20.55;;;4.80;;
83513;SDS011;73447;53.262;10.424;2024-01-25T09:41:37;27.67;;;5.03;;
83513;SDS011;73447;53.262;10.424;2024-01-25T09:44:03;22.27;;;5.22;;
83513;SDS011;73447;53.262;10.424;2024-01-25T09:46:29;22.05;;;4.93;;
83513;SDS011;73447;53.262;10.424;2024-01-25T09:48:55;23.27;;;5.18;;
83513;SDS011;73447;53.262;10.424;2024-01-25T09:51:21;22.42;;;4.53;;
83513;SDS011;73447;53.262;10.424;2024-01-25T09:53:48;17.20;;;4.32;;
83513;SDS011;73447;53.262;10.424;2024-01-25T09:56:14;23.45;;;4.32;;
83513;SDS011;73447;53.262;10.424;2024-01-25T09:58:44;22.38;;;5.43;;
83513;SDS011;73447;53.262;10.424;2024-01-25T10:01:12;32.08;;;5.57;;
83513;SDS011;73447;53.262;10.424;2024-01-25T10:03:39;26.23;;;5.00;;
83513;SDS011;73447;53.262;10.424;2024-01-25T10:06:07;28.58;;;4.90;;
83513;SDS011;73447;53.262;10.424;2024-01-25T10:08:33;21.67;;;4.63;;
83513;SDS011;73447;53.262;10.424;2024-01-25T10:10:59;24.65;;;5.10;;
83513;SDS011;73447;53.262;10.424;2024-01-25T10:13:25;22.77;;;5.95;;
83513;SDS011;73447;53.262;10.424;2024-01-25T10:15:53;22.33;;;4.05;;
83513;SDS011;73447;53.262;10.424;2024-01-25T10:18:19;26.55;;;4.93;;
83513;SDS011;73447;53.262;10.424;2024-01-25T10:20:46;17.63;;;4.57;;
83513;SDS011;73447;53.262;10.424;2024-01-25T10:23:12;23.70;;;4.90;;
83513;SDS011;73447;53.262;10.424;2024-01-25T10:25:37;25.42;;;5.78;;
83513;SDS011;73447;53.262;10.424;2024-01-25T10:28:04;20.75;;;5.07;;
83513;SDS011;73447;53.262;10.424;2024-01-25T10:30:36;27.98;;;5.35;;
83513;SDS011;73447;53.262;10.424;2024-01-25T10:33:02;25.42;;;4.60;;
83513;SDS011;73447;53.262;10.424;2024-01-25T10:35:29;29.15;;;5.43;;
83513;SDS011;73447;53.262;10.424;2024-01-25T10:37:56;21.73;;;4.93;;
83513;SDS011;73447;53.262;10.424;2024-01-25T10:40:22;19.77;;;4.65;;
83513;SDS011;73447;53.262;10.424;2024-01-25T10:42:48;22.70;;;5.22;;
83513;SDS011;73447;53.262;10.424;2024-01-25T10:45:13;20.42;;;5.35;;
83513;SDS011;73447;53.262;10.424;2024-01-25T10:47:39;21.50;;;5.25;;
83513;SDS011;73447;53.262;10.424;2024-01-25T10:50:09;25.77;;;4.57;;
83513;SDS011;73447;53.262;10.424;2024-01-25T10:52:37;19.77;;;6.32;;
83513;SDS011;73447;53.262;10.424;2024-01-25T10:55:04;22.75;;;4.68;;
83513;SDS011;73447;53.262;10.424;2024-01-25T10:57:42;23.35;;;5.40;;
83513;SDS011;73447;53.262;10.424;2024-01-25T11:00:09;25.55;;;4.90;;
83513;SDS011;73447;53.262;10.424;2024-01-25T11:02:36;22.42;;;4.72;;
83513;SDS011;73447;53.262;10.424;2024-01-25T11:05:05;25.73;;;4.95;;
83513;SDS011;73447;53.262;10.424;2024-01-25T11:07:56;18.63;;;4.53;;
83513;SDS011;73447;53.262;10.424;2024-01-25T11:10:22;24.38;;;5.60;;
83513;SDS011;73447;53.262;10.424;2024-01-25T11:15:32;17.25;;;4.43;;
83513;SDS011;73447;53.262;10.424;2024-01-25T11:18:02;25.17;;;5.65;;
83513;SDS011;73447;53.262;10.424;2024-01-25T11:20:29;22.00;;;4.82;;
83513;SDS011;73447;53.262;10.424;2024-01-25T11:22:59;21.05;;;5.10;;
83513;SDS011;73447;53.262;10.424;2024-01-25T11:25:33;16.27;;;5.20;;
83513;SDS011;73447;53.262;10.424;2024-01-25T11:28:00;18.23;;;5.43;;
83513;SDS011;73447;53.262;10.424;2024-01-25T11:30:28;26.23;;;5.88;;
83513;SDS011;73447;53.262;10.424;2024-01-25T11:32:54;23.02;;;5.07;;
83513;SDS011;73447;53.262;10.424;2024-01-25T11:35:21;26.92;;;5.93;;
83513;SDS011;73447;53.262;10.424;2024-01-25T11:37:47;22.67;;;5.50;;
83513;SDS011;73447;53.262;10.424;2024-01-25T11:40:15;21.88;;;4.95;;
83513;SDS011;73447;53.262;10.424;2024-01-25T11:42:45;25.67;;;5.20;;
83513;SDS011;73447;53.262;10.424;2024-01-25T11:45:12;22.80;;;4.75;;
83513;SDS011;73447;53.262;10.424;2024-01-25T11:47:39;17.52;;;5.00;;
83513;SDS011;73447;53.262;10.424;2024-01-25T11:50:06;20.05;;;4.22;;
83513;SDS011;73447;53.262;10.424;2024-01-25T11:52:32;20.40;;;5.82;;
83513;SDS011;73447;53.262;10.424;2024-01-25T11:55:02;19.63;;;4.60;;
83513;SDS011;73447;53.262;10.424;2024-01-25T11:57:29;25.23;;;4.47;;
83513;SDS011;73447;53.262;10.424;2024-01-25T11:59:57;23.38;;;5.10;;
83513;SDS011;73447;53.262;10.424;2024-01-25T12:02:23;19.55;;;4.60;;
83513;SDS011;73447;53.262;10.424;2024-01-25T12:04:49;17.25;;;4.47;;
83513;SDS011;73447;53.262;10.424;2024-01-25T12:07:15;18.52;;;4.43;;
83513;SDS011;73447;53.262;10.424;2024-01-25T12:09:40;22.65;;;6.07;;
83513;SDS011;73447;53.262;10.424;2024-01-25T12:12:07;24.55;;;4.40;;
83513;SDS011;73447;53.262;10.424;2024-01-25T12:14:34;23.42;;;4.60;;
83513;SDS011;73447;53.262;10.424;2024-01-25T12:17:00;27.88;;;4.70;;
83513;SDS011;73447;53.262;10.424;2024-01-25T12:19:27;16.05;;;4.20;;
83513;SDS011;73447;53.262;10.424;2024-01-25T12:21:55;22.63;;;4.22;;
83513;SDS011;73447;53.262;10.424;2024-01-25T12:24:21;17.42;;;4.90;;
83513;SDS011;73447;53.262;10.424;2024-01-25T12:26:46;16.13;;;4.80;;
83513;SDS011;73447;53.262;10.424;2024-01-25T12:29:12;20.08;;;5.20;;
83513;SDS011;73447;53.262;10.424;2024-01-25T12:31:38;20.13;;;5.57;;
83513;SDS011;73447;53.262;10.424;2024-01-25T12:34:03;21.88;;;4.50;;
83513;SDS011;73447;53.262;10.424;2024-01-25T12:36:39;17.58;;;5.47;;
83513;SDS011;73447;53.262;10.424;2024-01-25T12:39:05;21.55;;;5.47;;
83513;SDS011;73447;53.262;10.424;2024-01-25T12:41:31;15.68;;;4.65;;
83513;SDS011;73447;53.262;10.424;2024-01-25T12:43:56;21.08;;;5.55;;
83513;SDS011;73447;53.262;10.424;2024-01-25T12:46:22;19.00;;;4.18;;
83513;SDS011;73447;53.262;10.424;2024-01-25T12:48:47;18.17;;;4.72;;
83513;SDS011;73447;53.262;10.424;2024-01-25T12:51:12;24.23;;;4.70;;
83513;SDS011;73447;53.262;10.424;2024-01-25T12:53:38;24.20;;;4.95;;
83513;SDS011;73447;53.262;10.424;2024-01-25T12:56:03;18.90;;;4.88;;
83513;SDS011;73447;53.262;10.424;2024-01-25T12:58:29;17.25;;;5.00;;
83513;SDS011;73447;53.262;10.424;2024-01-25T13:00:54;25.00;;;4.93;;
83513;SDS011;73447;53.262;10.424;2024-01-25T13:03:20;16.25;;;4.70;;
83513;SDS011;73447;53.262;10.424;2024-01-25T13:05:45;22.95;;;5.13;;
83513;SDS011;73447;53.262;10.424;2024-01-25T13:08:11;17.30;;;4.57;;
83513;SDS011;73447;53.262;10.424;2024-01-25T13:10:36;21.98;;;4.47;;
83513;SDS011;73447;53.262;10.424;2024-01-25T13:13:01;18.52;;;4.60;;
83513;SDS011;73447;53.262;10.424;2024-01-25T13:15:27;36.08;;;5.95;;
83513;SDS011;73447;53.262;10.424;2024-01-25T13:17:52;14.50;;;4.38;;
83513;SDS011;73447;53.262;10.424;2024-01-25T13:20:18;25.13;;;6.88;;
83513;SDS011;73447;53.262;10.424;2024-01-25T13:22:43;20.05;;;4.80;;
83513;SDS011;73447;53.262;10.424;2024-01-25T13:25:08;23.75;;;5.20;;
83513;SDS011;73447;53.262;10.424;2024-01-25T13:27:35;20.50;;;4.35;;
83513;SDS011;73447;53.262;10.424;2024-01-25T13:30:01;18.90;;;4.53;;
83513;SDS011;73447;53.262;10.424;2024-01-25T13:32:27;21.02;;;5.28;;
83513;SDS011;73447;53.262;10.424;2024-01-25T13:34:52;19.13;;;5.93;;
83513;SDS011;73447;53.262;10.424;2024-01-25T13:37:17;17.50;;;4.18;;
83513;SDS011;73447;53.262;10.424;2024-01-25T13:39:43;16.58;;;4.65;;
83513;SDS011;73447;53.262;10.424;2024-01-25T13:42:09;25.05;;;5.45;;
83513;SDS011;73447;53.262;10.424;2024-01-25T13:44:34;21.92;;;4.47;;
83513;SDS011;73447;53.262;10.424;2024-01-25T13:47:00;18.15;;;4.88;;
83513;SDS011;73447;53.262;10.424;2024-01-25T13:49:26;17.33;;;4.22;;
83513;SDS011;73447;53.262;10.424;2024-01-25T13:51:52;18.20;;;3.95;;
83513;SDS011;73447;53.262;10.424;2024-01-25T13:54:18;22.48;;;5.00;;
83513;SDS011;73447;53.262;10.424;2024-01-25T13:56:43;19.90;;;4.50;;
83513;SDS011;73447;53.262;10.424;2024-01-25T13:59:08;14.30;;;4.68;;
83513;SDS011;73447;53.262;10.424;2024-01-25T14:01:34;16.52;;;5.07;;
83513;SDS011;73447;53.262;10.424;2024-01-25T14:03:59;25.58;;;4.57;;
83513;SDS011;73447;53.262;10.424;2024-01-25T14:06:25;24.65;;;5.80;;
83513;SDS011;73447;53.262;10.424;2024-01-25T14:08:50;17.95;;;4.20;;
83513;SDS011;73447;53.262;10.424;2024-01-25T14:11:15;16.13;;;4.57;;
83513;SDS011;73447;53.262;10.424;2024-01-25T14:13:41;19.02;;;4.50;;
83513;SDS011;73447;53.262;10.424;2024-01-25T14:16:07;16.88;;;4.57;;
83513;SDS011;73447;53.262;10.424;2024-01-25T14:18:39;14.50;;;4.63;;
83513;SDS011;73447;53.262;10.424;2024-01-25T14:21:04;21.95;;;5.50;;
83513;SDS011;73447;53.262;10.424;2024-01-25T14:23:30;22.52;;;5.40;;
83513;SDS011;73447;53.262;10.424;2024-01-25T14:25:55;17.08;;;3.83;;
83513;SDS011;73447;53.262;10.424;2024-01-25T14:28:21;15.60;;;4.53;;
83513;SDS011;73447;53.262;10.424;2024-01-25T14:30:46;23.17;;;4.43;;
83513;SDS011;73447;53.262;10.424;2024-01-25T14:33:13;16.45;;;3.92;;
83513;SDS011;73447;53.262;10.424;2024-01-25T14:35:39;15.55;;;3.90;;
83513;SDS011;73447;53.262;10.424;2024-01-25T14:38:04;16.17;;;4.45;;
83513;SDS011;73447;53.262;10.424;2024-01-25T14:40:29;13.50;;;3.80;;
83513;SDS011;73447;53.262;10.424;2024-01-25T14:42:55;13.20;;;4.32;;
83513;SDS011;73447;53.262;10.424;2024-01-25T14:45:20;19.67;;;4.65;;
83513;SDS011;73447;53.262;10.424;2024-01-25T14:47:46;13.93;;;3.78;;
83513;SDS011;73447;53.262;10.424;2024-01-25T14:50:11;15.20;;;3.67;;
83513;SDS011;73447;53.262;10.424;2024-01-25T14:52:36;16.95;;;3.60;;
83513;SDS011;73447;53.262;10.424;2024-01-25T14:55:02;10.85;;;2.88;;
83513;SDS011;73447;53.262;10.424;2024-01-25T14:57:29;12.88;;;3.50;;
83513;SDS011;73447;53.262;10.424;2024-01-25T14:59:54;11.40;;;3.50;;
83513;SDS011;73447;53.262;10.424;2024-01-25T15:02:20;12.52;;;3.30;;
83513;SDS011;73447;53.262;10.424;2024-01-25T15:04:45;12.20;;;3.45;;
83513;SDS011;73447;53.262;10.424;2024-01-25T15:07:11;16.88;;;4.18;;
83513;SDS011;73447;53.262;10.424;2024-01-25T15:09:36;15.38;;;3.60;;
83513;SDS011;73447;53.262;10.424;2024-01-25T15:12:02;10.77;;;3.80;;
83513;SDS011;73447;53.262;10.424;2024-01-25T15:14:28;15.75;;;4.40;;
83513;SDS011;73447;53.262;10.424;2024-01-25T15:16:53;13.65;;;3.60;;
83513;SDS011;73447;53.262;10.424;2024-01-25T15:19:18;14.63;;;4.93;;
83513;SDS011;73447;53.262;10.424;2024-01-25T15:21:45;13.45;;;3.63;;
83513;SDS011;73447;53.262;10.424;2024-01-25T15:24:10;13.50;;;3.10;;
83513;SDS011;73447;53.262;10.424;2024-01-25T15:26:39;15.93;;;3.88;;
83513;SDS011;73447;53.262;10.424;2024-01-25T15:29:05;13.60;;;3.00;;
83513;SDS011;73447;53.262;10.424;2024-01-25T15:31:30;13.32;;;3.70;;
83513;SDS011;73447;53.262;10.424;2024-01-25T15:33:55;14.82;;;3.92;;
83513;SDS011;73447;53.262;10.424;2024-01-25T15:36:21;14.63;;;3.20;;
83513;SDS011;73447;53.262;10.424;2024-01-25T15:38:46;17.92;;;4.72;;
83513;SDS011;73447;53.262;10.424;2024-01-25T15:41:14;14.68;;;4.15;;
83513;SDS011;73447;53.262;10.424;2024-01-25T15:43:41;16.73;;;3.83;;
83513;SDS011;73447;53.262;10.424;2024-01-25T15:46:07;15.82;;;4.30;;
83513;SDS011;73447;53.262;10.424;2024-01-25T15:48:32;16.90;;;4.85;;
83513;SDS011;73447;53.262;10.424;2024-01-25T15:50:57;15.35;;;3.85;;
83513;SDS011;73447;53.262;10.424;2024-01-25T15:53:23;17.88;;;3.78;;
83513;SDS011;73447;53.262;10.424;2024-01-25T15:55:48;16.83;;;4.45;;
83513;SDS011;73447;53.262;10.424;2024-01-25T15:58:13;15.20;;;3.90;;
83513;SDS011;73447;53.262;10.424;2024-01-25T16:00:39;14.05;;;4.00;;
83513;SDS011;73447;53.262;10.424;2024-01-25T16:03:04;12.05;;;3.83;;
83513;SDS011;73447;53.262;10.424;2024-01-25T16:05:30;19.35;;;4.50;;
83513;SDS011;73447;53.262;10.424;2024-01-25T16:07:56;13.02;;;3.60;;
83513;SDS011;73447;53.262;10.424;2024-01-25T16:10:22;17.65;;;4.90;;
83513;SDS011;73447;53.262;10.424;2024-01-25T16:12:47;17.83;;;4.45;;
83513;SDS011;73447;53.262;10.424;2024-01-25T16:15:13;16.13;;;3.67;;
83513;SDS011;73447;53.262;10.424;2024-01-25T16:17:39;14.77;;;3.78;;
83513;SDS011;73447;53.262;10.424;2024-01-25T16:20:04;17.23;;;4.60;;
83513;SDS011;73447;53.262;10.424;2024-01-25T16:22:31;20.55;;;5.10;;
83513;SDS011;73447;53.262;10.424;2024-01-25T16:24:57;18.75;;;5.60;;
83513;SDS011;73447;53.262;10.424;2024-01-25T16:27:23;17.73;;;4.95;;
83513;SDS011;73447;53.262;10.424;2024-01-25T16:29:49;22.65;;;6.10;;
83513;SDS011;73447;53.262;10.424;2024-01-25T16:32:14;17.10;;;6.05;;
83513;SDS011;73447;53.262;10.424;2024-01-25T16:34:39;18.75;;;5.80;;
83513;SDS011;73447;53.262;10.424;2024-01-25T16:37:05;16.58;;;4.65;;
83513;SDS011;73447;53.262;10.424;2024-01-25T16:39:30;17.63;;;5.03;;
83513;SDS011;73447;53.262;10.424;2024-01-25T16:41:55;19.08;;;6.25;;
83513;SDS011;73447;53.262;10.424;2024-01-25T16:44:21;21.17;;;6.07;;
83513;SDS011;73447;53.262;10.424;2024-01-25T16:46:46;18.27;;;5.68;;
83513;SDS011;73447;53.262;10.424;2024-01-25T16:49:12;20.33;;;5.97;;
83513;SDS011;73447;53.262;10.424;2024-01-25T16:51:37;23.88;;;6.38;;
83513;SDS011;73447;53.262;10.424;2024-01-25T16:54:03;17.65;;;5.90;;
83513;SDS011;73447;53.262;10.424;2024-01-25T16:56:28;20.95;;;6.35;;
83513;SDS011;73447;53.262;10.424;2024-01-25T16:58:54;26.90;;;6.88;;
83513;SDS011;73447;53.262;10.424;2024-01-25T17:01:19;18.40;;;7.18;;
83513;SDS011;73447;53.262;10.424;2024-01-25T17:03:44;19.70;;;5.82;;
83513;SDS011;73447;53.262;10.424;2024-01-25T17:06:10;23.80;;;5.60;;
83513;SDS011;73447;53.262;10.424;2024-01-25T17:08:35;20.55;;;5.93;;
83513;SDS011;73447;53.262;10.424;2024-01-25T17:11:01;21.25;;;6.60;;
83513;SDS011;73447;53.262;10.424;2024-01-25T17:13:26;15.20;;;6.35;;
83513;SDS011;73447;53.262;10.424;2024-01-25T17:15:51;25.30;;;7.03;;
83513;SDS011;73447;53.262;10.424;2024-01-25T17:18:17;17.73;;;6.18;;
83513;SDS011;73447;53.262;10.424;2024-01-25T17:20:42;18.98;;;7.18;;
83513;SDS011;73447;53.262;10.424;2024-01-25T17:23:08;21.40;;;6.20;;
83513;SDS011;73447;53.262;10.424;2024-01-25T17:25:33;18.67;;;6.72;;
83513;SDS011;73447;53.262;10.424;2024-01-25T17:27:59;22.38;;;6.82;;
83513;SDS011;73447;53.262;10.424;2024-01-25T17:30:24;20.38;;;6.82;;
83513;SDS011;73447;53.262;10.424;2024-01-25T17:32:49;21.60;;;7.55;;
83513;SDS011;73447;53.262;10.424;2024-01-25T17:35:15;21.88;;;6.60;;
83513;SDS011;73447;53.262;10.424;2024-01-25T17:37:40;15.75;;;7.28;;
83513;SDS011;73447;53.262;10.424;2024-01-25T17:40:06;21.05;;;6.78;;
83513;SDS011;73447;53.262;10.424;2024-01-25T17:42:31;21.25;;;6.47;;
83513;SDS011;73447;53.262;10.424;2024-01-25T17:44:57;22.20;;;6.72;;
83513;SDS011;73447;53.262;10.424;2024-01-25T17:47:23;25.13;;;7.43;;
83513;SDS011;73447;53.262;10.424;2024-01-25T17:49:49;19.50;;;6.50;;
83513;SDS011;73447;53.262;10.424;2024-01-25T17:52:15;22.33;;;6.18;;
83513;SDS011;73447;53.262;10.424;2024-01-25T17:54:40;23.17;;;7.07;;
83513;SDS011;73447;53.262;10.424;2024-01-25T17:57:06;21.40;;;7.10;;
83513;SDS011;73447;53.262;10.424;2024-01-25T17:59:31;25.65;;;8.10;;
83513;SDS011;73447;53.262;10.424;2024-01-25T18:01:57;20.08;;;9.40;;
83513;SDS011;73447;53.262;10.424;2024-01-25T18:04:22;27.77;;;6.78;;
83513;SDS011;73447;53.262;10.424;2024-01-25T18:06:47;28.65;;;8.00;;
83513;SDS011;73447;53.262;10.424;2024-01-25T18:09:13;18.92;;;6.85;;
83513;SDS011;73447;53.262;10.424;2024-01-25T18:11:38;21.85;;;6.82;;
83513;SDS011;73447;53.262;10.424;2024-01-25T18:14:03;21.90;;;6.95;;
83513;SDS011;73447;53.262;10.424;2024-01-25T18:16:29;16.15;;;6.35;;
83513;SDS011;73447;53.262;10.424;2024-01-25T18:18:54;22.77;;;7.03;;
83513;SDS011;73447;53.262;10.424;2024-01-25T18:21:20;25.52;;;6.72;;
83513;SDS011;73447;53.262;10.424;2024-01-25T18:23:45;25.92;;;7.88;;
83513;SDS011;73447;53.262;10.424;2024-01-25T18:26:11;25.58;;;8.15;;
83513;SDS011;73447;53.262;10.424;2024-01-25T18:28:36;29.73;;;8.95;;
83513;SDS011;73447;53.262;10.424;2024-01-25T18:31:01;22.40;;;8.55;;
83513;SDS011;73447;53.262;10.424;2024-01-25T18:33:27;25.98;;;8.77;;
83513;SDS011;73447;53.262;10.424;2024-01-25T18:35:52;24.10;;;8.68;;
83513;SDS011;73447;53.262;10.424;2024-01-25T18:38:18;30.52;;;9.07;;
83513;SDS011;73447;53.262;10.424;2024-01-25T18:40:44;24.08;;;7.68;;
83513;SDS011;73447;53.262;10.424;2024-01-25T18:43:09;25.17;;;7.90;;
83513;SDS011;73447;53.262;10.424;2024-01-25T18:45:34;23.83;;;7.60;;
83513;SDS011;73447;53.262;10.424;2024-01-25T18:48:00;20.40;;;6.80;;
83513;SDS011;73447;53.262;10.424;2024-01-25T18:50:26;14.43;;;6.18;;
83513;SDS011;73447;53.262;10.424;2024-01-25T18:52:52;21.50;;;6.82;;
83513;SDS011;73447;53.262;10.424;2024-01-25T18:55:17;19.35;;;7.25;;
83513;SDS011;73447;53.262;10.424;2024-01-25T18:57:43;31.55;;;10.82;;
83513;SDS011;73447;53.262;10.424;2024-01-25T19:00:09;26.58;;;7.47;;
83513;SDS011;73447;53.262;10.424;2024-01-25T19:02:35;21.95;;;6.97;;
83513;SDS011;73447;53.262;10.424;2024-01-25T19:05:01;24.77;;;6.57;;
83513;SDS011;73447;53.262;10.424;2024-01-25T19:07:27;21.63;;;6.03;;
83513;SDS011;73447;53.262;10.424;2024-01-25T19:09:53;22.02;;;6.78;;
83513;SDS011;73447;53.262;10.424;2024-01-25T19:12:19;26.73;;;6.05;;
83513;SDS011;73447;53.262;10.424;2024-01-25T19:14:45;23.30;;;7.45;;
83513;SDS011;73447;53.262;10.424;2024-01-25T19:17:10;30.00;;;6.95;;
83513;SDS011;73447;53.262;10.424;2024-01-25T19:19:36;25.60;;;7.13;;
83513;SDS011;73447;53.262;10.424;2024-01-25T19:22:03;18.50;;;6.68;;
83513;SDS011;73447;53.262;10.424;2024-01-25T19:24:28;26.08;;;6.50;;
83513;SDS011;73447;53.262;10.424;2024-01-25T19:26:54;20.88;;;6.65;;
83513;SDS011;73447;53.262;10.424;2024-01-25T19:29:19;14.48;;;6.35;;
83513;SDS011;73447;53.262;10.424;2024-01-25T19:31:46;20.85;;;6.18;;
83513;SDS011;73447;53.262;10.424;2024-01-25T19:34:12;23.38;;;7.10;;
83513;SDS011;73447;53.262;10.424;2024-01-25T19:36:37;23.00;;;7.43;;
83513;SDS011;73447;53.262;10.424;2024-01-25T19:39:03;25.88;;;8.27;;
83513;SDS011;73447;53.262;10.424;2024-01-25T19:41:28;23.00;;;6.82;;
83513;SDS011;73447;53.262;10.424;2024-01-25T19:43:54;25.48;;;7.25;;
83513;SDS011;73447;53.262;10.424;2024-01-25T19:46:19;29.95;;;7.95;;
83513;SDS011;73447;53.262;10.424;2024-01-25T19:48:45;29.92;;;7.95;;
83513;SDS011;73447;53.262;10.424;2024-01-25T19:51:11;31.05;;;7.38;;
83513;SDS011;73447;53.262;10.424;2024-01-25T19:53:36;30.70;;;7.30;;
83513;SDS011;73447;53.262;10.424;2024-01-25T19:56:02;31.55;;;9.00;;
83513;SDS011;73447;53.262;10.424;2024-01-25T19:58:27;23.25;;;6.88;;
83513;SDS011;73447;53.262;10.424;2024-01-25T20:00:53;31.25;;;7.65;;
83513;SDS011;73447;53.262;10.424;2024-01-25T20:03:22;23.48;;;6.60;;
83513;SDS011;73447;53.262;10.424;2024-01-25T20:05:48;23.10;;;7.72;;
83513;SDS011;73447;53.262;10.424;2024-01-25T20:08:14;27.88;;;7.20;;
83513;SDS011;73447;53.262;10.424;2024-01-25T20:10:39;30.42;;;7.28;;
83513;SDS011;73447;53.262;10.424;2024-01-25T20:13:05;24.55;;;7.15;;
83513;SDS011;73447;53.262;10.424;2024-01-25T20:15:31;21.33;;;6.18;;
83513;SDS011;73447;53.262;10.424;2024-01-25T20:17:57;25.48;;;7.38;;
83513;SDS011;73447;53.262;10.424;2024-01-25T20:20:22;25.38;;;6.78;;
83513;SDS011;73447;53.262;10.424;2024-01-25T20:22:49;20.13;;;6.07;;
83513;SDS011;73447;53.262;10.424;2024-01-25T20:25:14;27.05;;;6.95;;
83513;SDS011;73447;53.262;10.424;2024-01-25T20:27:40;18.23;;;5.72;;
83513;SDS011;73447;53.262;10.424;2024-01-25T20:30:05;22.60;;;6.05;;
83513;SDS011;73447;53.262;10.424;2024-01-25T20:32:31;30.08;;;6.65;;
83513;SDS011;73447;53.262;10.424;2024-01-25T20:34:57;21.52;;;5.88;;
83513;SDS011;73447;53.262;10.424;2024-01-25T20:37:22;20.15;;;6.05;;
83513;SDS011;73447;53.262;10.424;2024-01-25T20:39:48;28.67;;;6.20;;
83513;SDS011;73447;53.262;10.424;2024-01-25T20:42:13;22.60;;;7.35;;
83513;SDS011;73447;53.262;10.424;2024-01-25T20:44:38;23.00;;;7.63;;
83513;SDS011;73447;53.262;10.424;2024-01-25T20:47:04;18.63;;;7.05;;
83513;SDS011;73447;53.262;10.424;2024-01-25T20:49:29;24.92;;;7.32;;
83513;SDS011;73447;53.262;10.424;2024-01-25T20:51:55;21.58;;;7.97;;
83513;SDS011;73447;53.262;10.424;2024-01-25T20:54:20;21.00;;;6.32;;
83513;SDS011;73447;53.262;10.424;2024-01-25T20:56:46;27.45;;;8.05;;
83513;SDS011;73447;53.262;10.424;2024-01-25T20:59:11;23.77;;;6.13;;
83513;SDS011;73447;53.262;10.424;2024-01-25T21:01:36;20.38;;;6.72;;
83513;SDS011;73447;53.262;10.424;2024-01-25T21:04:03;22.90;;;6.03;;
83513;SDS011;73447;53.262;10.424;2024-01-25T21:06:29;26.33;;;7.07;;
83513;SDS011;73447;53.262;10.424;2024-01-25T21:08:54;16.38;;;5.57;;
83513;SDS011;73447;53.262;10.424;2024-01-25T21:11:20;23.35;;;6.40;;
83513;SDS011;73447;53.262;10.424;2024-01-25T21:13:46;21.30;;;6.65;;
83513;SDS011;73447;53.262;10.424;2024-01-25T21:16:12;20.98;;;6.25;;
83513;SDS011;73447;53.262;10.424;2024-01-25T21:18:38;20.30;;;6.50;;
83513;SDS011;73447;53.262;10.424;2024-01-25T21:21:03;21.27;;;6.13;;
83513;SDS011;73447;53.262;10.424;2024-01-25T21:23:29;20.90;;;6.50;;
83513;SDS011;73447;53.262;10.424;2024-01-25T21:25:54;19.02;;;6.50;;
83513;SDS011;73447;53.262;10.424;2024-01-25T21:28:19;23.25;;;6.85;;
83513;SDS011;73447;53.262;10.424;2024-01-25T21:30:45;25.75;;;6.40;;
83513;SDS011;73447;53.262;10.424;2024-01-25T21:33:10;20.98;;;5.68;;
83513;SDS011;73447;53.262;10.424;2024-01-25T21:35:36;25.20;;;6.80;;
83513;SDS011;73447;53.262;10.424;2024-01-25T21:38:01;18.83;;;5.95;;
83513;SDS011;73447;53.262;10.424;2024-01-25T21:40:27;25.60;;;7.22;;
83513;SDS011;73447;53.262;10.424;2024-01-25T21:42:52;20.98;;;6.13;;
83513;SDS011;73447;53.262;10.424;2024-01-25T21:45:17;14.13;;;7.03;;
83513;SDS011;73447;53.262;10.424;2024-01-25T21:47:43;21.17;;;6.13;;
83513;SDS011;73447;53.262;10.424;2024-01-25T21:50:09;17.67;;;5.90;;
83513;SDS011;73447;53.262;10.424;2024-01-25T21:52:35;25.30;;;7.05;;
83513;SDS011;73447;53.262;10.424;2024-01-25T21:55:00;30.48;;;7.22;;
83513;SDS011;73447;53.262;10.424;2024-01-25T21:57:28;23.15;;;6.70;;
83513;SDS011;73447;53.262;10.424;2024-01-25T21:59:53;18.00;;;6.05;;
83513;SDS011;73447;53.262;10.424;2024-01-25T22:02:18;19.35;;;6.30;;
83513;SDS011;73447;53.262;10.424;2024-01-25T22:04:44;19.88;;;6.15;;
83513;SDS011;73447;53.262;10.424;2024-01-25T22:07:10;27.83;;;7.07;;
83513;SDS011;73447;53.262;10.424;2024-01-25T22:09:35;25.77;;;6.85;;
83513;SDS011;73447;53.262;10.424;2024-01-25T22:12:01;24.85;;;6.75;;
83513;SDS011;73447;53.262;10.424;2024-01-25T22:14:27;21.98;;;6.25;;
83513;SDS011;73447;53.262;10.424;2024-01-25T22:16:52;24.33;;;6.57;;
83513;SDS011;73447;53.262;10.424;2024-01-25T22:19:17;25.95;;;5.93;;
83513;SDS011;73447;53.262;10.424;2024-01-25T22:21:44;21.17;;;5.70;;
83513;SDS011;73447;53.262;10.424;2024-01-25T22:24:10;20.42;;;6.13;;
83513;SDS011;73447;53.262;10.424;2024-01-25T22:26:36;34.38;;;6.80;;
83513;SDS011;73447;53.262;10.424;2024-01-25T22:29:01;22.48;;;6.18;;
83513;SDS011;73447;53.262;10.424;2024-01-25T22:31:26;21.70;;;6.57;;
83513;SDS011;73447;53.262;10.424;2024-01-25T22:33:52;20.65;;;5.95;;
83513;SDS011;73447;53.262;10.424;2024-01-25T22:36:17;15.57;;;5.20;;
83513;SDS011;73447;53.262;10.424;2024-01-25T22:38:43;26.80;;;7.13;;
83513;SDS011;73447;53.262;10.424;2024-01-25T22:41:08;24.13;;;6.63;;
83513;SDS011;73447;53.262;10.424;2024-01-25T22:43:33;24.35;;;6.00;;
83513;SDS011;73447;53.262;10.424;2024-01-25T22:45:59;23.88;;;6.78;;
83513;SDS011;73447;53.262;10.424;2024-01-25T22:48:24;27.05;;;5.78;;
83513;SDS011;73447;53.262;10.424;2024-01-25T22:50:50;23.00;;;6.88;;
83513;SDS011;73447;53.262;10.424;2024-01-25T22:53:15;20.25;;;6.72;;
83513;SDS011;73447;53.262;10.424;2024-01-25T22:55:41;21.17;;;6.50;;
83513;SDS011;73447;53.262;10.424;2024-01-25T22:58:06;27.35;;;7.05;;
83513;SDS011;73447;53.262;10.424;2024-01-25T23:00:31;26.85;;;6.90;;
83513;SDS011;73447;53.262;10.424;2024-01-25T23:02:58;31.20;;;6.53;;
83513;SDS011;73447;53.262;10.424;2024-01-25T23:05:24;17.98;;;6.57;;
83513;SDS011;73447;53.262;10.424;2024-01-25T23:07:50;23.65;;;6.95;;
83513;SDS011;73447;53.262;10.424;2024-01-25T23:10:16;20.90;;;6.20;;
83513;SDS011;73447;53.262;10.424;2024-01-25T23:12:45;25.52;;;6.97;;